createdAt,value
2018-02-13T00:02:14.173Z,0.9
2018-02-13T00:07:14.115Z,0.9
2018-02-13T00:12:14.180Z,0.9
2018-02-13T00:17:14.103Z,0.9
2018-02-13T00:22:14.016Z,1
2018-02-13T00:27:14.145Z,1
2018-02-13T00:32:14.212Z,1
2018-02-13T00:37:14.086Z,0.9
2018-02-13T00:42:15.153Z,1
2018-02-13T00:47:14.178Z,1
2018-02-13T00:52:14.014Z,1
2018-02-13T00:57:14.004Z,1
2018-02-13T01:02:14.014Z,1.1
2018-02-13T01:07:14.219Z,1.1
2018-02-13T01:12:14.119Z,1.1
2018-02-13T01:17:14.182Z,1
2018-02-13T01:22:14.133Z,1
2018-02-13T01:27:14.248Z,1
2018-02-13T01:32:14.178Z,1
2018-02-13T01:37:14.220Z,1
2018-02-13T01:42:14.279Z,1
2018-02-13T01:47:14.491Z,1
2018-02-13T01:52:14.425Z,0.9
2018-02-13T01:57:14.470Z,0.9
2018-02-13T02:02:14.500Z,0.9
2018-02-13T02:07:14.427Z,0.9
2018-02-13T02:12:14.459Z,0.9
2018-02-13T02:17:14.481Z,0.8
2018-02-13T02:22:14.393Z,0.8
2018-02-13T02:27:14.460Z,0.8
2018-02-13T02:32:14.311Z,0.8
2018-02-13T02:37:14.510Z,0.8
2018-02-13T02:42:14.729Z,0.8
2018-02-13T02:47:14.702Z,0.8
2018-02-13T02:52:14.540Z,0.7
2018-02-13T02:57:20.034Z,0.8
2018-02-13T03:02:25.048Z,0.8
2018-02-13T03:07:19.953Z,0.8
2018-02-13T03:12:19.745Z,0.7
2018-02-13T03:17:20.002Z,0.7
2018-02-13T03:22:20.046Z,0.8
2018-02-13T03:27:19.947Z,0.7
2018-02-13T03:32:20.117Z,0.7
2018-02-13T03:37:20.166Z,0.7
2018-02-13T03:42:20.052Z,0.7
2018-02-13T03:47:20.131Z,0.7
2018-02-13T03:52:19.868Z,0.7
2018-02-13T03:57:20.102Z,0.6
2018-02-13T04:02:20.115Z,0.6
2018-02-13T04:07:20.045Z,0.5
2018-02-13T04:12:20.068Z,0.6
2018-02-13T04:17:19.908Z,0.6
2018-02-13T04:22:20.142Z,0.6
2018-02-13T04:27:20.097Z,0.6
2018-02-13T04:32:20.137Z,0.5
2018-02-13T04:37:20.136Z,0.5
2018-02-13T04:42:19.895Z,0.4
2018-02-13T04:47:19.923Z,0.4
2018-02-13T04:52:19.945Z,0.5
2018-02-13T04:57:19.934Z,0.4
2018-02-13T05:02:19.947Z,0.4
2018-02-13T05:07:20.338Z,0.4
2018-02-13T05:12:19.940Z,0.4
2018-02-13T05:17:20.113Z,0.4
2018-02-13T05:22:20.142Z,0.3
2018-02-13T05:27:20.171Z,0.3
2018-02-13T05:32:20.209Z,0.3
2018-02-13T05:37:19.948Z,0.3
2018-02-13T05:42:19.966Z,0.3
2018-02-13T05:47:20.191Z,0.2
2018-02-13T05:52:20.131Z,0.2
2018-02-13T05:57:20.165Z,0.1
2018-02-13T06:02:20.175Z,0.1
2018-02-13T06:07:20.145Z,0.1
2018-02-13T06:12:19.999Z,0.1
2018-02-13T06:17:20.177Z,0.1
2018-02-13T06:22:20.004Z,0.2
2018-02-13T06:27:20.168Z,0.1
2018-02-13T06:32:20.019Z,0.1
2018-02-13T06:37:20.245Z,0.1
2018-02-13T06:42:20.270Z,0.1
2018-02-13T06:47:20.297Z,0.2
2018-02-13T06:52:20.217Z,0.2
2018-02-13T06:57:20.252Z,0.1
2018-02-13T07:02:20.291Z,0.2
2018-02-13T07:07:20.467Z,0.2
2018-02-13T07:12:20.359Z,0.3
2018-02-13T07:17:20.310Z,0.2
2018-02-13T07:22:20.515Z,0.3
2018-02-13T07:27:20.592Z,0.4
2018-02-13T07:32:20.522Z,0.4
2018-02-13T07:37:20.532Z,0.5
2018-02-13T07:42:20.590Z,0.6
2018-02-13T07:47:20.384Z,0.7
2018-02-13T07:52:24.638Z,0.8
2018-02-13T07:57:29.878Z,0.8
2018-02-13T08:02:24.735Z,0.8
2018-02-13T08:07:24.620Z,0.8
2018-02-13T08:12:24.739Z,1
2018-02-13T08:17:24.816Z,1.1
2018-02-13T08:22:24.853Z,1.2
2018-02-13T08:27:24.874Z,1.3
2018-02-13T08:32:24.788Z,1.2
2018-02-13T08:37:24.606Z,1.2
2018-02-13T08:42:24.880Z,1.1
2018-02-13T08:47:24.803Z,1.2
2018-02-13T08:52:24.803Z,1.2
2018-02-13T08:57:24.852Z,1.3
2018-02-13T09:02:24.903Z,1.4
2018-02-13T09:07:24.856Z,1.4
2018-02-13T09:12:24.878Z,1.3
2018-02-13T09:17:24.917Z,1.5
2018-02-13T09:22:24.913Z,2
2018-02-13T09:27:24.835Z,2.2
2018-02-13T09:32:24.928Z,2
2018-02-13T09:37:24.824Z,2.5
2018-02-13T09:42:24.885Z,2.7
2018-02-13T09:47:24.907Z,2.6
2018-02-13T09:52:24.944Z,2.5
2018-02-13T09:57:24.868Z,3
2018-02-13T10:02:24.822Z,2.8
2018-02-13T10:07:24.949Z,3.2
2018-02-13T10:12:24.832Z,3.3
2018-02-13T10:17:24.901Z,3.5
2018-02-13T10:22:24.878Z,3.7
2018-02-13T10:27:24.725Z,3.8
2018-02-13T10:32:24.863Z,3.4
2018-02-13T10:37:24.749Z,3.6
2018-02-13T10:42:25.113Z,3.3
2018-02-13T10:47:25.123Z,3.3
2018-02-13T10:52:25.331Z,3.4
2018-02-13T10:57:25.304Z,3.4
2018-02-13T11:02:25.308Z,3.5
2018-02-13T11:07:25.223Z,3.5
2018-02-13T11:12:25.458Z,3.7
2018-02-13T11:17:25.524Z,3.5
2018-02-13T11:22:25.578Z,3.7
2018-02-13T11:27:25.292Z,3.5
2018-02-13T11:32:25.747Z,3.4
2018-02-13T11:37:25.637Z,3.5
2018-02-13T11:42:25.750Z,3.5
2018-02-13T11:47:25.889Z,3.7
2018-02-13T11:52:26.029Z,4
2018-02-13T11:57:25.873Z,4.2
2018-02-13T12:02:25.758Z,4.1
2018-02-13T12:07:25.887Z,4.3
2018-02-13T12:12:25.713Z,4.2
2018-02-13T12:17:25.904Z,4.1
2018-02-13T12:22:25.960Z,4.1
2018-02-13T12:27:26.011Z,3.8
2018-02-13T12:32:26.240Z,3.9
2018-02-13T12:37:25.783Z,4
2018-02-13T12:42:26.915Z,4
2018-02-13T12:47:32.134Z,3.6
2018-02-13T12:52:27.051Z,3.7
2018-02-13T12:57:27.070Z,4
2018-02-13T13:02:27.154Z,4.1
2018-02-13T13:07:27.055Z,4.3
2018-02-13T13:12:26.914Z,4.5
2018-02-13T13:17:27.111Z,4.3
2018-02-13T13:22:27.060Z,4
2018-02-13T13:27:27.094Z,3.5
2018-02-13T13:32:27.112Z,3.2
2018-02-13T13:37:27.166Z,3.1
2018-02-13T13:42:27.124Z,3.2
2018-02-13T13:47:27.136Z,3
2018-02-13T13:52:27.060Z,2.8
2018-02-13T13:57:27.094Z,2.9
2018-02-13T14:02:27.140Z,2.9
2018-02-13T14:07:26.935Z,2.8
2018-02-13T14:12:26.957Z,2.9
2018-02-13T14:17:27.133Z,2.6
2018-02-13T14:22:27.168Z,2.8
2018-02-13T14:27:26.954Z,2.7
2018-02-13T14:32:27.347Z,2.8
2018-02-13T14:37:27.109Z,2.7
2018-02-13T14:42:27.279Z,2.9
2018-02-13T14:47:27.252Z,3
2018-02-13T14:52:27.265Z,2.9
2018-02-13T14:57:27.121Z,2.8
2018-02-13T15:02:27.338Z,2.6
2018-02-13T15:07:27.072Z,2.7
2018-02-13T15:12:27.286Z,2.7
2018-02-13T15:17:27.330Z,2.6
2018-02-13T15:22:27.380Z,2.6
2018-02-13T15:27:27.302Z,2.5
2018-02-13T15:32:27.330Z,2.6
2018-02-13T15:37:27.111Z,2.5
2018-02-13T15:42:27.132Z,2.4
2018-02-13T15:47:27.151Z,2.4
2018-02-13T15:52:27.149Z,2.4
2018-02-13T15:57:27.283Z,2.3
2018-02-13T16:02:27.331Z,2.4
2018-02-13T16:07:27.289Z,2.3
2018-02-13T16:12:27.286Z,2.2
2018-02-13T16:17:27.336Z,2.2
2018-02-13T16:22:27.366Z,2.1
2018-02-13T16:27:27.164Z,2.1
2018-02-13T16:32:27.378Z,2
2018-02-13T16:37:27.396Z,2
2018-02-13T16:42:27.169Z,1.9
2018-02-13T16:47:27.443Z,1.8
2018-02-13T16:52:27.169Z,1.8
2018-02-13T16:57:27.172Z,1.7
2018-02-13T17:02:27.167Z,1.6
2018-02-13T17:07:27.192Z,1.5
2018-02-13T17:12:27.165Z,1.4
2018-02-13T17:17:27.179Z,1.3
2018-02-13T17:22:27.188Z,1.1
2018-02-13T17:27:27.173Z,1.1
2018-02-13T17:32:27.195Z,1.1
2018-02-13T17:37:29.866Z,1.1
2018-02-13T17:42:34.941Z,1.1
2018-02-13T17:47:29.833Z,1
2018-02-13T17:52:29.867Z,1
2018-02-13T17:57:29.845Z,1
2018-02-13T18:02:29.886Z,1
2018-02-13T18:07:29.800Z,1
2018-02-13T18:12:29.865Z,1
2018-02-13T18:17:29.867Z,0.9
2018-02-13T18:22:29.881Z,0.9
2018-02-13T18:27:29.868Z,0.9
2018-02-13T18:32:29.853Z,0.9
2018-02-13T18:37:30.021Z,0.9
2018-02-13T18:42:30.051Z,0.9
2018-02-13T18:47:30.103Z,0.8
2018-02-13T18:57:30.054Z,0.8
2018-02-13T19:02:30.131Z,0.8
2018-02-13T19:07:30.134Z,0.7
2018-02-13T19:12:29.894Z,0.7
2018-02-13T19:17:30.095Z,0.7
2018-02-13T19:22:30.017Z,0.7
2018-02-13T19:27:30.050Z,0.6
2018-02-13T19:32:30.078Z,0.6
2018-02-13T19:37:29.909Z,0.6
2018-02-13T19:42:30.035Z,0.5
2018-02-13T19:47:30.097Z,0.5
2018-02-13T19:52:30.151Z,0.5
2018-02-13T19:57:30.039Z,0.5
2018-02-13T20:02:31.203Z,0.5
2018-02-13T20:07:30.234Z,0.5
2018-02-13T20:12:30.230Z,0.5
2018-02-13T20:17:30.055Z,0.4
2018-02-13T20:22:30.063Z,0.4
2018-02-13T20:27:30.228Z,0.4
2018-02-13T20:32:30.045Z,0.3
2018-02-13T20:37:30.211Z,0.3
2018-02-13T20:42:30.045Z,0.3
2018-02-13T20:47:30.053Z,0.3
2018-02-13T20:52:30.040Z,0.3
2018-02-13T20:57:30.062Z,0.3
2018-02-13T21:02:30.265Z,0.4
2018-02-13T21:07:30.386Z,0.4
2018-02-13T21:12:30.266Z,0.4
2018-02-13T21:17:30.475Z,0.3
2018-02-13T21:22:30.436Z,0.3
2018-02-13T21:27:30.283Z,0.3
2018-02-13T21:32:30.472Z,0.3
2018-02-13T21:37:30.400Z,0.2
2018-02-13T21:42:30.272Z,0.2
2018-02-13T21:47:30.469Z,0.1
2018-02-13T21:52:30.285Z,0.1
2018-02-13T21:57:30.263Z,0
2018-02-13T22:02:30.300Z,0
2018-02-13T22:07:30.523Z,-0.1
2018-02-13T22:12:30.418Z,-0.2
2018-02-13T22:17:30.303Z,-0.3
2018-02-13T22:22:33.353Z,-0.4
2018-02-13T22:27:38.426Z,-0.4
2018-02-13T22:32:33.552Z,-0.5
2018-02-13T22:37:33.471Z,-0.6
2018-02-13T22:42:33.500Z,-0.7
2018-02-13T22:47:33.545Z,-0.7
2018-02-13T22:52:33.571Z,-0.9
2018-02-13T22:57:33.363Z,-0.9
2018-02-13T23:02:33.407Z,-1
2018-02-13T23:07:33.570Z,-1
2018-02-13T23:12:33.610Z,-1
2018-02-13T23:17:33.522Z,-1.1
2018-02-13T23:22:33.573Z,-1.3
2018-02-13T23:27:33.611Z,-1.3
2018-02-13T23:32:33.637Z,-1.4
2018-02-13T23:37:33.563Z,-1.4
2018-02-13T23:42:33.441Z,-1.4
2018-02-13T23:47:33.652Z,-1.5
2018-02-13T23:52:33.563Z,-1.6
2018-02-13T23:57:33.611Z,-1.5
